Training

As most of you know, the flight school has added a Super Decathlon to our fleet. Not only are we now offering tail wheel endorsements in it, but we also offer a different kind of training... Check out this link to AOPA's Pilot magazine article, and see what is ALSO OFFERED TO YOU RIGHT HERE AT … [Read More...]

Weather

METAR FOR KCHA (Issued: Thu, July 31st 2014 2:53 AM UTC):
KCHA 310253Z 00000KT 10SM FEW055 BKN250 BKN300 21/15 A3009 RMK AO2 SLP182 T02110150 53007

Accomplishments

Marvin Mueller

Congratulations to Marvin Mueller our newest private pilot. Marvin passed his check ride on Friday March 8th. … [Read More...]

Congrats to Randy Sexton

Congratulations to Randy Sexton on becoming our newest Private Pilot at Hixson Aviation. Randy completed his checkride on Monday, March 4, 2013. … [Read More...]

Dallas Bay Skypark - 1A0